Time;durP1;ratioP1;P1;durP2;ratioP2;P2;SDS_P1;SDS_P2;PMS_P1;PMS_P2;Temp;Humidity;BMP_temperature;BMP_pressure;BME280_temperature;BME280_humidity;BME280_pressure;Samples;Min_cycle;Max_cycle;Signal;HPM_P1;HPM_P2
2023/09/30 00:01:53;;;;;;;6.95;4.05;;;12.50;99.90;;;;;;5086798;28;20484;-72
2023/09/30 00:04:18;;;;;;;3.88;3.47;;;12.50;99.90;;;;;;5085765;28;20051;-72
2023/09/30 00:06:44;;;;;;;3.85;3.28;;;12.50;99.90;;;;;;5085630;28;20043;-73
2023/09/30 00:09:11;;;;;;;5.07;3.22;;;12.60;99.90;;;;;;5090240;28;20040;-73
2023/09/30 00:11:37;;;;;;;4.97;3.35;;;12.50;99.90;;;;;;5078050;28;20040;-72
2023/09/30 00:14:04;;;;;;;4.10;3.70;;;12.50;99.90;;;;;;5082608;28;20044;-72
2023/09/30 00:16:30;;;;;;;3.95;3.20;;;12.50;99.90;;;;;;5091472;28;20957;-73
2023/09/30 00:18:58;;;;;;;5.10;3.90;;;12.50;99.90;;;;;;5091681;28;20027;-73
2023/09/30 00:21:24;;;;;;;5.22;3.47;;;12.60;99.90;;;;;;5090596;28;20055;-73
2023/09/30 00:23:50;;;;;;;3.70;3.30;;;12.60;99.90;;;;;;5085492;28;20040;-72
2023/09/30 00:26:16;;;;;;;3.88;3.25;;;12.60;99.90;;;;;;5083923;28;20173;-72
2023/09/30 00:28:41;;;;;;;3.78;3.47;;;12.60;99.90;;;;;;5084208;28;20125;-74
2023/09/30 00:31:10;;;;;;;4.03;3.33;;;12.60;99.90;;;;;;5085656;28;20126;-74
2023/09/30 00:33:36;;;;;;;3.67;3.28;;;12.60;99.90;;;;;;5091295;28;20054;-73
2023/09/30 00:36:12;;;;;;;4.07;3.60;;;12.60;99.90;;;;;;5089500;28;20046;-73
2023/09/30 00:38:37;;;;;;;3.78;3.47;;;12.50;99.90;;;;;;5089089;28;20134;-73
2023/09/30 00:41:03;;;;;;;5.40;3.47;;;12.40;99.90;;;;;;5090876;28;20040;-74
2023/09/30 00:43:29;;;;;;;7.68;4.05;;;12.40;99.90;;;;;;5089515;28;20100;-73
2023/09/30 00:46:25;;;;;;;3.30;3.00;;;12.40;99.90;;;;;;5083576;28;20024;-73
2023/09/30 00:48:51;;;;;;;4.50;3.40;;;12.40;99.90;;;;;;5078154;28;20036;-73
2023/09/30 00:51:17;;;;;;;4.88;3.92;;;12.30;99.90;;;;;;5087972;28;20387;-73
2023/09/30 00:53:43;;;;;;;5.45;3.00;;;12.20;99.90;;;;;;5092572;28;20782;-73
2023/09/30 00:56:10;;;;;;;5.05;3.78;;;12.20;99.90;;;;;;5087765;28;20056;-74
2023/09/30 00:58:38;;;;;;;4.95;3.63;;;12.30;99.90;;;;;;5088192;28;20027;-74
2023/09/30 01:01:04;;;;;;;7.25;4.22;;;12.20;99.90;;;;;;5089801;28;20032;-73
2023/09/30 01:03:30;;;;;;;4.20;3.45;;;12.30;99.90;;;;;;5088956;28;20032;-73
2023/09/30 01:05:56;;;;;;;4.57;3.40;;;12.30;99.90;;;;;;5084875;28;20040;-74
2023/09/30 01:08:22;;;;;;;6.55;3.67;;;12.30;99.90;;;;;;5071736;28;20104;-73
2023/09/30 01:10:48;;;;;;;6.85;3.30;;;12.20;99.90;;;;;;5091322;28;20035;-73
2023/09/30 01:13:14;;;;;;;5.13;3.30;;;12.20;99.90;;;;;;5090094;28;20050;-73
2023/09/30 01:15:39;;;;;;;3.95;3.15;;;12.20;99.90;;;;;;5092746;28;20031;-73
2023/09/30 01:18:06;;;;;;;5.40;3.25;;;12.20;99.90;;;;;;5087495;28;20407;-72
2023/09/30 01:20:32;;;;;;;3.58;3.28;;;12.20;99.90;;;;;;5091693;28;20563;-73
2023/09/30 01:22:58;;;;;;;4.00;3.50;;;12.10;99.90;;;;;;5098540;27;20051;-74
2023/09/30 01:25:24;;;;;;;7.60;3.90;;;12.20;99.90;;;;;;5093743;28;20035;-73
2023/09/30 01:27:51;;;;;;;4.20;3.38;;;12.20;99.90;;;;;;5090005;28;20132;-73
2023/09/30 01:30:17;;;;;;;4.38;3.67;;;12.20;99.90;;;;;;5092711;28;20118;-73
2023/09/30 01:32:44;;;;;;;7.05;3.67;;;12.20;99.90;;;;;;5096772;28;20064;-73
2023/09/30 01:35:09;;;;;;;6.22;3.78;;;12.20;99.90;;;;;;5090007;28;20127;-73
2023/09/30 01:37:35;;;;;;;4.43;3.50;;;12.30;99.90;;;;;;5092149;28;20059;-74
2023/09/30 01:40:03;;;;;;;4.38;3.47;;;12.20;99.90;;;;;;5094639;27;20065;-73
2023/09/30 01:42:29;;;;;;;3.95;3.45;;;12.20;99.90;;;;;;5087570;28;20055;-73
2023/09/30 01:44:56;;;;;;;5.13;3.70;;;12.20;99.90;;;;;;5094139;28;20511;-73
2023/09/30 01:47:22;;;;;;;5.32;3.45;;;12.10;99.90;;;;;;5090029;27;20047;-74
2023/09/30 01:49:48;;;;;;;2.88;2.50;;;12.20;99.90;;;;;;5091838;28;20027;-72
2023/09/30 01:52:13;;;;;;;4.35;2.70;;;12.20;99.90;;;;;;5090996;28;20093;-73
2023/09/30 01:54:39;;;;;;;3.35;2.70;;;11.90;99.90;;;;;;5093358;28;20035;-71
2023/09/30 01:57:05;;;;;;;4.07;2.92;;;11.70;99.90;;;;;;5090151;28;20043;-71
2023/09/30 01:59:30;;;;;;;4.20;3.35;;;11.70;99.90;;;;;;5076516;28;20032;-72
2023/09/30 02:01:56;;;;;;;4.40;3.40;;;11.60;99.90;;;;;;5091072;28;20265;-72
2023/09/30 02:04:22;;;;;;;3.70;3.38;;;11.70;99.90;;;;;;5092400;28;20642;-72
2023/09/30 02:06:48;;;;;;;4.93;3.60;;;11.80;99.90;;;;;;5090071;28;20055;-72
2023/09/30 02:09:14;;;;;;;4.47;3.85;;;11.80;99.90;;;;;;5091098;28;20736;-72
2023/09/30 02:11:43;;;;;;;5.82;3.47;;;11.80;99.90;;;;;;5090385;27;20047;-72
2023/09/30 02:14:11;;;;;;;5.00;3.53;;;11.90;99.90;;;;;;5085720;28;20043;-71
2023/09/30 02:16:38;;;;;;;5.43;3.60;;;12.00;99.90;;;;;;5088280;28;20135;-72
2023/09/30 02:19:04;;;;;;;2.97;2.67;;;12.00;99.90;;;;;;5074705;28;20889;-72
2023/09/30 02:21:30;;;;;;;3.75;2.80;;;11.90;99.90;;;;;;5089316;28;20051;-72
2023/09/30 02:23:55;;;;;;;5.28;3.38;;;11.80;99.90;;;;;;5088143;28;20050;-72
2023/09/30 02:26:22;;;;;;;5.43;3.22;;;11.70;99.90;;;;;;5091408;28;20069;-72
2023/09/30 02:28:48;;;;;;;4.03;3.30;;;11.70;99.90;;;;;;5090992;28;20616;-72
2023/09/30 02:31:13;;;;;;;4.03;3.63;;;11.60;99.90;;;;;;5091632;28;20144;-72
2023/09/30 02:33:39;;;;;;;3.53;3.22;;;11.60;99.90;;;;;;5089330;28;20041;-72
2023/09/30 02:36:08;;;;;;;3.53;3.22;;;11.50;99.90;;;;;;5088338;28;20051;-72
2023/09/30 02:38:37;;;;;;;3.60;3.30;;;11.60;99.90;;;;;;5089222;28;20054;-72
2023/09/30 02:41:03;;;;;;;3.65;2.70;;;11.60;99.90;;;;;;5087298;28;20047;-72
2023/09/30 02:43:29;;;;;;;3.90;2.90;;;11.60;99.90;;;;;;5093146;28;20062;-72
2023/09/30 02:45:55;;;;;;;4.57;3.10;;;11.50;99.90;;;;;;5092197;28;20492;-72
2023/09/30 02:48:21;;;;;;;3.53;3.17;;;11.50;99.90;;;;;;5090648;28;20039;-72
2023/09/30 02:50:47;;;;;;;6.50;3.70;;;11.60;99.90;;;;;;5093584;28;20586;-72
2023/09/30 02:53:13;;;;;;;3.55;3.17;;;11.60;99.90;;;;;;5071556;28;20048;-72
2023/09/30 02:55:42;;;;;;;3.53;3.22;;;11.60;99.90;;;;;;5087709;28;20467;-72
2023/09/30 02:58:08;;;;;;;3.80;3.13;;;11.60;99.90;;;;;;5092173;28;20101;-66
2023/09/30 03:00:35;;;;;;;4.13;3.30;;;11.70;99.90;;;;;;5088380;28;20035;-66
2023/09/30 03:03:02;;;;;;;3.97;2.92;;;11.70;99.90;;;;;;5088561;28;20042;-66
2023/09/30 03:05:30;;;;;;;2.90;2.70;;;11.70;99.90;;;;;;5092659;28;20113;-66
2023/09/30 03:07:56;;;;;;;3.28;2.88;;;11.70;99.90;;;;;;5090699;28;20119;-66
2023/09/30 03:10:23;;;;;;;4.25;3.00;;;11.70;99.90;;;;;;5086309;28;22090;-66
2023/09/30 03:12:53;;;;;;;3.42;2.97;;;11.60;99.90;;;;;;5091359;28;20029;-66
2023/09/30 03:15:19;;;;;;;7.90;3.00;;;11.50;99.90;;;;;;5090902;28;20027;-66
2023/09/30 03:17:44;;;;;;;3.55;3.22;;;11.60;99.90;;;;;;5091315;28;20104;-66
2023/09/30 03:20:11;;;;;;;6.20;3.08;;;11.50;99.90;;;;;;5090149;28;20031;-66
2023/09/30 03:22:42;;;;;;;3.33;2.80;;;11.50;99.90;;;;;;5089390;28;20117;-67
2023/09/30 03:25:12;;;;;;;3.28;2.92;;;11.50;99.90;;;;;;5088769;28;20024;-66
2023/09/30 03:27:38;;;;;;;4.75;3.20;;;11.40;99.90;;;;;;5089280;28;20105;-66
2023/09/30 03:30:08;;;;;;;3.55;3.25;;;11.40;99.90;;;;;;5090990;28;20030;-66
2023/09/30 03:32:37;;;;;;;3.47;3.03;;;11.40;99.90;;;;;;5086853;28;20043;-66
2023/09/30 03:35:05;;;;;;;4.30;2.80;;;11.40;99.90;;;;;;5089045;28;20047;-66
2023/09/30 03:37:32;;;;;;;3.55;2.95;;;11.50;99.90;;;;;;5083385;28;20071;-73
2023/09/30 03:39:58;;;;;;;2.92;2.63;;;11.50;99.90;;;;;;5090417;28;20036;-72
2023/09/30 03:42:24;;;;;;;3.45;2.90;;;11.40;99.90;;;;;;5090048;28;20520;-72
2023/09/30 03:44:49;;;;;;;4.00;3.08;;;11.40;99.90;;;;;;5093263;28;20043;-72
2023/09/30 03:47:16;;;;;;;2.70;2.50;;;11.40;99.90;;;;;;5087428;28;20032;-73
2023/09/30 03:49:42;;;;;;;2.78;2.58;;;11.40;99.90;;;;;;5094824;28;20050;-72
2023/09/30 03:52:09;;;;;;;3.72;3.03;;;11.40;99.90;;;;;;5088973;28;20035;-73
2023/09/30 03:54:35;;;;;;;4.40;3.08;;;11.30;99.90;;;;;;5088961;28;20050;-73
2023/09/30 03:57:01;;;;;;;4.00;3.55;;;11.20;99.90;;;;;;5092743;28;20051;-72
2023/09/30 03:59:27;;;;;;;5.50;3.20;;;11.10;99.90;;;;;;5090127;28;20043;-72
2023/09/30 04:01:53;;;;;;;3.70;3.33;;;11.20;99.90;;;;;;5086331;28;20044;-72
2023/09/30 04:04:22;;;;;;;4.65;3.20;;;11.20;99.90;;;;;;5088366;28;20089;-71
2023/09/30 04:06:47;;;;;;;4.50;3.00;;;11.30;99.90;;;;;;5086023;28;21274;-71
2023/09/30 04:09:14;;;;;;;5.50;3.58;;;11.30;99.90;;;;;;5072583;28;20042;-73
2023/09/30 04:11:42;;;;;;;4.05;2.97;;;11.20;99.90;;;;;;5089265;28;20067;-72
2023/09/30 04:14:08;;;;;;;4.85;3.30;;;11.10;99.90;;;;;;5090562;28;20679;-72
2023/09/30 04:16:34;;;;;;;3.67;3.00;;;11.10;99.90;;;;;;5089852;28;20096;-72
2023/09/30 04:19:00;;;;;;;5.97;3.67;;;11.10;99.90;;;;;;5090159;28;20095;-72
2023/09/30 04:21:28;;;;;;;4.60;3.20;;;11.20;99.90;;;;;;5089541;28;20092;-71
2023/09/30 04:23:54;;;;;;;4.88;3.13;;;11.20;99.90;;;;;;5087810;28;20085;-72
2023/09/30 04:26:19;;;;;;;4.57;3.38;;;11.20;99.90;;;;;;5090797;28;20932;-72
2023/09/30 04:28:45;;;;;;;5.05;3.20;;;11.20;99.90;;;;;;5089785;28;20117;-72
2023/09/30 04:31:13;;;;;;;5.78;3.53;;;11.20;99.90;;;;;;5091022;28;20070;-72
2023/09/30 04:33:39;;;;;;;6.00;3.13;;;11.30;99.90;;;;;;5089560;28;20035;-72
2023/09/30 04:36:10;;;;;;;5.05;2.85;;;11.30;99.90;;;;;;5087560;28;20151;-73
2023/09/30 04:38:38;;;;;;;4.38;3.13;;;11.30;99.90;;;;;;5063680;28;20043;-72
2023/09/30 04:41:07;;;;;;;3.47;2.40;;;11.20;99.90;;;;;;5088535;28;20056;-72
2023/09/30 04:43:33;;;;;;;2.95;2.70;;;11.20;99.90;;;;;;5090811;28;20035;-73
2023/09/30 04:45:59;;;;;;;4.68;2.88;;;11.20;99.90;;;;;;5075743;28;20034;-73
2023/09/30 04:48:25;;;;;;;3.30;3.00;;;11.20;99.90;;;;;;5093428;27;20016;-72
2023/09/30 04:50:51;;;;;;;4.55;3.17;;;11.10;99.90;;;;;;5096417;28;20377;-72
2023/09/30 04:53:17;;;;;;;3.75;3.17;;;11.10;99.90;;;;;;5086309;27;20028;-73
2023/09/30 04:55:44;;;;;;;6.30;2.90;;;11.20;99.90;;;;;;5094031;28;20031;-73
2023/09/30 04:58:10;;;;;;;2.97;2.70;;;11.20;99.90;;;;;;5092219;28;20607;-72
2023/09/30 05:00:36;;;;;;;14.27;4.30;;;11.30;99.90;;;;;;5092187;28;20042;-72
2023/09/30 05:03:01;;;;;;;5.72;3.40;;;11.30;99.90;;;;;;5095610;28;20595;-73
2023/09/30 05:05:28;;;;;;;3.65;3.13;;;11.30;99.90;;;;;;5091362;28;20067;-72
2023/09/30 05:07:54;;;;;;;4.38;3.20;;;11.30;99.90;;;;;;5091651;27;20043;-72
2023/09/30 05:10:20;;;;;;;5.15;3.08;;;11.30;99.90;;;;;;5076041;28;20031;-73
2023/09/30 05:12:45;;;;;;;4.40;3.03;;;11.40;99.90;;;;;;5094573;28;20101;-72
2023/09/30 05:15:14;;;;;;;4.38;3.03;;;11.40;99.90;;;;;;5095312;27;20154;-72
2023/09/30 05:17:43;;;;;;;3.28;2.78;;;11.50;99.90;;;;;;5093430;28;20093;-73
2023/09/30 05:20:10;;;;;;;4.25;2.90;;;11.60;99.90;;;;;;5088776;28;20139;-73
2023/09/30 05:22:36;;;;;;;3.78;2.83;;;11.70;99.90;;;;;;5091225;27;20050;-73
2023/09/30 05:25:02;;;;;;;4.28;3.42;;;11.80;99.90;;;;;;5089298;28;20357;-73
2023/09/30 05:27:28;;;;;;;4.53;2.97;;;12.00;99.90;;;;;;5092771;28;20412;-73
2023/09/30 05:29:55;;;;;;;12.00;4.03;;;12.20;99.90;;;;;;5097496;27;20036;-73
2023/09/30 05:32:22;;;;;;;4.78;3.30;;;12.40;99.90;;;;;;5084644;28;20047;-72
2023/09/30 05:34:48;;;;;;;3.67;2.97;;;12.60;99.90;;;;;;5082667;28;20132;-73
2023/09/30 05:37:14;;;;;;;5.40;2.92;;;12.70;99.90;;;;;;5087670;28;20031;-72
2023/09/30 05:39:40;;;;;;;4.88;3.20;;;12.70;99.90;;;;;;5092531;28;20035;-72
2023/09/30 05:42:06;;;;;;;5.72;4.30;;;12.80;99.90;;;;;;5083992;28;20787;-73
2023/09/30 05:44:32;;;;;;;5.75;3.95;;;12.90;99.90;;;;;;5088870;28;20039;-73
2023/09/30 05:46:59;;;;;;;8.57;3.85;;;12.90;99.90;;;;;;5084485;28;20035;-72
2023/09/30 05:49:25;;;;;;;7.72;3.83;;;13.00;99.90;;;;;;5088876;28;20030;-72
2023/09/30 05:51:51;;;;;;;5.05;3.80;;;13.10;99.90;;;;;;5080878;28;20027;-72
2023/09/30 05:54:17;;;;;;;3.95;3.53;;;13.30;99.90;;;;;;5086659;28;20070;-72
2023/09/30 05:56:43;;;;;;;5.05;3.75;;;13.40;99.90;;;;;;5092137;28;20100;-72
2023/09/30 05:59:09;;;;;;;5.60;3.67;;;13.50;99.90;;;;;;5090911;28;20031;-73
2023/09/30 06:01:35;;;;;;;5.95;3.88;;;13.60;99.90;;;;;;5093228;28;20075;-73
2023/09/30 06:04:02;;;;;;;7.55;3.88;;;13.60;99.90;;;;;;5083468;28;20054;-67
2023/09/30 06:06:30;;;;;;;8.18;4.50;;;13.70;99.90;;;;;;5076052;28;20050;-67
2023/09/30 06:09:00;;;;;;;5.05;4.57;;;13.70;99.90;;;;;;5081455;28;20032;-66
2023/09/30 06:11:28;;;;;;;4.63;3.92;;;13.70;99.90;;;;;;5082356;28;20115;-66
2023/09/30 06:14:00;;;;;;;3.90;3.60;;;13.80;99.90;;;;;;5086282;28;20063;-66
2023/09/30 06:16:27;;;;;;;5.60;4.45;;;13.90;99.90;;;;;;5084667;28;20242;-66
2023/09/30 06:18:54;;;;;;;5.25;4.70;;;14.00;99.90;;;;;;5081796;28;20044;-67
2023/09/30 06:21:24;;;;;;;6.88;4.93;;;14.10;99.90;;;;;;5087856;28;20039;-66
2023/09/30 06:23:53;;;;;;;10.48;5.45;;;14.20;99.90;;;;;;5086408;28;20063;-66
2023/09/30 06:26:20;;;;;;;10.35;5.47;;;14.10;99.90;;;;;;5089813;28;20055;-66
2023/09/30 06:28:47;;;;;;;6.05;4.47;;;14.20;99.90;;;;;;5075151;28;20044;-66
2023/09/30 06:31:14;;;;;;;9.52;4.70;;;14.30;99.90;;;;;;5087370;28;21084;-65
2023/09/30 06:33:40;;;;;;;9.60;4.70;;;14.40;99.90;;;;;;5083241;28;20070;-66
2023/09/30 06:36:10;;;;;;;8.38;5.40;;;14.50;99.90;;;;;;5094360;28;20211;-67
2023/09/30 06:38:37;;;;;;;10.00;5.07;;;14.60;99.90;;;;;;5071079;28;20581;-67
2023/09/30 06:41:03;;;;;;;6.93;4.78;;;14.70;99.90;;;;;;5086904;28;20093;-74
2023/09/30 06:43:29;;;;;;;5.63;5.00;;;14.80;99.90;;;;;;5086850;28;20052;-71
2023/09/30 06:45:55;;;;;;;7.53;5.13;;;14.90;99.90;;;;;;5091006;28;20040;-71
2023/09/30 06:48:21;;;;;;;6.22;5.28;;;14.90;99.90;;;;;;5086574;28;20036;-71
2023/09/30 06:50:49;;;;;;;5.15;4.65;;;15.00;99.90;;;;;;5089245;28;20111;-70
2023/09/30 06:53:18;;;;;;;13.52;5.18;;;15.10;99.90;;;;;;5081042;28;20592;-71
2023/09/30 06:55:44;;;;;;;7.45;4.97;;;15.20;99.90;;;;;;5081361;28;20495;-70
2023/09/30 06:58:10;;;;;;;5.68;5.07;;;15.30;99.90;;;;;;5067663;28;20590;-70
2023/09/30 07:00:41;;;;;;;7.30;4.70;;;15.40;99.90;;;;;;5080927;28;20131;-71
2023/09/30 07:03:09;;;;;;;8.77;5.83;;;15.50;99.90;;;;;;5077914;28;20038;-71
2023/09/30 07:05:36;;;;;;;10.68;5.47;;;15.60;99.90;;;;;;5072742;28;20521;-71
2023/09/30 07:08:02;;;;;;;6.95;5.70;;;15.60;99.90;;;;;;5081031;28;20031;-70
2023/09/30 07:10:29;;;;;;;5.82;5.18;;;15.70;99.90;;;;;;5085980;28;20048;-71
2023/09/30 07:12:55;;;;;;;6.53;5.38;;;15.60;99.90;;;;;;5080406;28;20039;-71
2023/09/30 07:15:21;;;;;;;10.98;6.18;;;15.70;99.90;;;;;;5080100;28;26383;-71
2023/09/30 07:17:47;;;;;;;7.55;5.60;;;15.70;99.90;;;;;;5086817;28;20564;-71
2023/09/30 07:20:13;;;;;;;6.70;5.72;;;15.80;99.90;;;;;;5077867;28;20036;-72
2023/09/30 07:22:39;;;;;;;6.18;5.50;;;15.90;99.90;;;;;;5082855;28;20157;-72
2023/09/30 07:25:05;;;;;;;12.25;5.88;;;15.90;99.90;;;;;;5077338;28;20019;-71
2023/09/30 07:27:30;;;;;;;8.50;6.38;;;16.00;99.90;;;;;;5080191;28;20035;-72
2023/09/30 07:29:56;;;;;;;6.20;5.32;;;16.10;99.90;;;;;;5081338;28;20832;-71
2023/09/30 07:32:24;;;;;;;9.23;5.85;;;16.20;99.90;;;;;;5083224;28;20071;-72
2023/09/30 07:34:51;;;;;;;6.22;5.50;;;16.40;99.90;;;;;;5085761;28;20039;-69
2023/09/30 07:37:18;;;;;;;8.43;6.03;;;16.40;99.90;;;;;;5086408;28;20099;-69
2023/09/30 07:39:44;;;;;;;7.13;5.30;;;16.50;99.90;;;;;;5079781;28;20032;-70
2023/09/30 07:42:10;;;;;;;20.17;5.50;;;16.60;99.90;;;;;;5079349;28;20039;-70
2023/09/30 07:44:37;;;;;;;5.93;5.10;;;16.60;99.90;;;;;;5076321;28;20080;-69
2023/09/30 07:47:03;;;;;;;27.67;5.97;;;16.70;99.90;;;;;;5077793;28;20624;-69
2023/09/30 07:49:29;;;;;;;9.82;5.03;;;16.80;99.90;;;;;;5080418;28;20028;-69
2023/09/30 07:51:55;;;;;;;8.98;5.20;;;16.80;99.90;;;;;;5056125;28;20152;-71
2023/09/30 07:54:21;;;;;;;9.02;5.15;;;16.90;99.90;;;;;;5078428;28;20032;-71
2023/09/30 07:56:47;;;;;;;7.38;4.82;;;17.00;99.90;;;;;;5086251;28;20793;-71
2023/09/30 07:59:13;;;;;;;5.40;4.90;;;17.10;99.90;;;;;;5072357;28;20093;-72
2023/09/30 08:01:39;;;;;;;7.05;4.70;;;17.20;99.90;;;;;;5088565;28;20040;-71
2023/09/30 08:04:05;;;;;;;5.35;4.28;;;17.20;99.90;;;;;;5086795;28;20107;-71
2023/09/30 08:06:31;;;;;;;6.20;4.70;;;17.20;99.90;;;;;;5087576;28;20440;-71
2023/09/30 08:08:56;;;;;;;8.80;5.35;;;17.30;99.90;;;;;;5083828;28;20036;-71
2023/09/30 08:11:22;;;;;;;5.95;5.07;;;17.30;99.90;;;;;;5087632;28;20063;-69
2023/09/30 08:13:48;;;;;;;14.45;5.75;;;17.30;99.90;;;;;;5081920;28;20040;-70
2023/09/30 08:16:14;;;;;;;14.23;5.40;;;17.30;99.90;;;;;;5084701;28;20131;-69
2023/09/30 08:18:39;;;;;;;16.15;5.43;;;17.40;99.90;;;;;;5084927;28;20051;-69
2023/09/30 08:21:10;;;;;;;6.20;5.25;;;17.50;99.90;;;;;;5078799;28;20796;-70
2023/09/30 08:23:35;;;;;;;10.57;5.30;;;17.50;99.90;;;;;;5083762;28;21293;-70
2023/09/30 08:26:01;;;;;;;7.85;5.63;;;17.60;99.90;;;;;;5082641;28;20035;-70
2023/09/30 08:28:27;;;;;;;6.03;5.40;;;17.70;99.90;;;;;;5075393;28;20110;-70
2023/09/30 08:30:57;;;;;;;11.07;5.72;;;17.70;99.90;;;;;;5086164;28;20519;-70
2023/09/30 08:33:23;;;;;;;9.82;5.18;;;17.80;99.90;;;;;;5059544;28;20042;-70
2023/09/30 08:35:50;;;;;;;7.68;5.28;;;17.80;99.90;;;;;;5063563;28;20039;-71
2023/09/30 08:38:15;;;;;;;5.85;5.07;;;17.90;99.90;;;;;;5086230;28;20393;-70
2023/09/30 08:40:41;;;;;;;6.78;4.95;;;17.90;99.90;;;;;;5086815;28;20043;-70
2023/09/30 08:43:11;;;;;;;7.45;4.90;;;18.00;99.90;;;;;;5071835;28;20071;-70
2023/09/30 08:45:43;;;;;;;7.43;5.10;;;18.00;99.90;;;;;;5079099;28;20031;-70
2023/09/30 08:48:09;;;;;;;;;;;18.10;99.90;;;;;;5089895;28;20073;-70
2023/09/30 08:50:40;;;;;;;6.50;4.60;;;18.10;99.90;;;;;;5089997;28;20038;-71
2023/09/30 08:53:09;;;;;;;5.78;4.55;;;18.10;99.90;;;;;;5084631;28;20032;-71
2023/09/30 08:55:35;;;;;;;6.35;4.47;;;18.20;99.90;;;;;;5089194;28;20020;-71
2023/09/30 08:58:02;;;;;;;5.50;4.75;;;18.30;99.90;;;;;;5066014;28;20496;-71
2023/09/30 09:00:28;;;;;;;7.50;4.93;;;18.50;99.90;;;;;;5081755;28;20112;-70
2023/09/30 09:02:54;;;;;;;5.75;4.60;;;18.70;99.90;;;;;;5080734;28;20117;-69
2023/09/30 09:05:20;;;;;;;7.93;4.18;;;18.90;99.90;;;;;;5061538;28;20469;-69
2023/09/30 09:07:46;;;;;;;6.80;4.30;;;19.10;99.90;;;;;;5081490;28;20047;-72
2023/09/30 09:10:15;;;;;;;6.95;4.20;;;19.10;99.90;;;;;;5083770;28;20051;-72
2023/09/30 09:12:42;;;;;;;6.85;4.55;;;19.10;99.90;;;;;;5087231;28;20043;-72
2023/09/30 09:15:19;;;;;;;5.45;4.75;;;19.20;99.90;;;;;;5084948;28;20043;-71
2023/09/30 09:17:45;;;;;;;7.10;4.47;;;19.20;99.90;;;;;;5085181;28;21511;-72
2023/09/30 09:20:22;;;;;;;5.53;4.55;;;19.30;99.90;;;;;;5085543;28;20069;-72
2023/09/30 09:23:00;;;;;;;7.53;4.47;;;19.20;99.90;;;;;;5084307;28;20048;-71
2023/09/30 09:25:26;;;;;;;5.63;4.60;;;19.20;99.90;;;;;;5091476;28;20028;-71
2023/09/30 09:27:53;;;;;;;7.05;4.20;;;19.30;99.90;;;;;;5091615;27;20551;-70
2023/09/30 09:30:19;;;;;;;6.35;3.85;;;19.40;99.90;;;;;;5095929;27;20034;-68
2023/09/30 09:33:04;;;;;;;5.45;3.88;;;19.50;99.90;;;;;;5072041;28;20451;-71
2023/09/30 09:35:32;;;;;;;4.60;4.20;;;19.70;99.90;;;;;;5090114;28;20032;-70
2023/09/30 09:38:04;;;;;;;4.65;4.25;;;19.80;99.90;;;;;;5094812;28;20039;-70
2023/09/30 09:40:32;;;;;;;12.70;5.05;;;19.90;99.90;;;;;;5091186;28;20031;-70
2023/09/30 09:42:59;;;;;;;5.78;4.32;;;20.00;99.90;;;;;;5088545;28;20047;-70
2023/09/30 09:45:27;;;;;;;8.23;4.53;;;20.10;99.90;;;;;;5089702;28;20388;-71
2023/09/30 09:47:54;;;;;;;5.65;4.15;;;20.20;99.90;;;;;;5087403;28;20848;-70
2023/09/30 09:50:21;;;;;;;7.95;4.18;;;20.10;99.90;;;;;;5078717;28;20154;-70
2023/09/30 09:52:53;;;;;;;6.65;4.47;;;20.20;99.90;;;;;;5089719;28;20028;-71
2023/09/30 09:55:21;;;;;;;7.03;3.75;;;20.20;99.90;;;;;;5087997;28;20409;-70
2023/09/30 09:57:48;;;;;;;6.85;4.22;;;20.10;99.90;;;;;;5096055;28;20568;-70
2023/09/30 10:00:19;;;;;;;7.85;3.95;;;20.20;99.90;;;;;;5079590;28;20197;-70
2023/09/30 10:02:48;;;;;;;9.05;4.20;;;20.30;99.90;;;;;;5081635;28;20050;-70
2023/09/30 10:05:15;;;;;;;12.52;4.53;;;20.30;99.90;;;;;;5086100;27;20055;-70
2023/09/30 10:07:46;;;;;;;6.28;4.00;;;20.40;99.90;;;;;;5075159;28;20035;-70
2023/09/30 10:10:18;;;;;;;8.32;4.13;;;20.40;99.90;;;;;;5064547;28;20053;-69
2023/09/30 10:12:44;;;;;;;;;;;20.40;99.90;;;;;;5087927;27;20814;-70
2023/09/30 10:15:25;;;;;;;6.68;4.60;;;20.40;99.90;;;;;;5076528;28;19916;-70
2023/09/30 10:18:06;;;;;;;4.95;4.32;;;20.40;99.90;;;;;;5073503;28;20036;-71
2023/09/30 10:20:34;;;;;;;7.20;4.30;;;20.50;99.90;;;;;;5084721;28;20044;-70
2023/09/30 10:23:20;;;;;;;6.88;4.85;;;20.40;99.90;;;;;;5090131;28;20279;-70
2023/09/30 10:25:47;;;;;;;6.18;4.32;;;20.30;99.90;;;;;;5087788;28;20160;-70
2023/09/30 10:28:39;;;;;;;5.00;4.53;;;20.30;99.90;;;;;;5092662;28;20048;-70
2023/09/30 10:31:24;;;;;;;5.60;4.55;;;20.20;99.90;;;;;;5088146;28;20040;-71
2023/09/30 10:33:59;;;;;;;7.65;4.32;;;20.20;99.90;;;;;;5083825;28;20032;-71
2023/09/30 10:36:32;;;;;;;5.35;4.05;;;20.30;99.90;;;;;;5092247;28;20035;-70
2023/09/30 10:38:58;;;;;;;5.45;4.60;;;20.40;99.90;;;;;;5084642;28;20038;-72
2023/09/30 10:41:39;;;;;;;8.25;4.60;;;20.40;99.90;;;;;;5088357;28;20425;-72
2023/09/30 10:44:25;;;;;;;5.25;4.57;;;20.40;99.90;;;;;;5087883;28;20109;-73
2023/09/30 10:46:51;;;;;;;6.25;4.30;;;20.40;99.90;;;;;;5089156;28;20122;-71
2023/09/30 10:49:22;;;;;;;6.47;4.20;;;20.40;99.90;;;;;;5067780;28;20039;-70
2023/09/30 10:51:56;;;;;;;5.30;4.65;;;20.40;99.90;;;;;;5090723;27;20035;-71
2023/09/30 10:54:29;;;;;;;5.97;4.72;;;20.40;99.90;;;;;;5087169;28;20036;-71
2023/09/30 10:56:55;;;;;;;4.53;4.13;;;20.40;99.90;;;;;;5087496;28;20089;-73
2023/09/30 10:59:27;;;;;;;4.05;3.65;;;20.40;99.90;;;;;;5083246;28;20155;-72
2023/09/30 11:01:53;;;;;;;6.13;4.60;;;20.40;99.90;;;;;;5087999;28;20067;-73
2023/09/30 11:04:19;;;;;;;5.10;4.10;;;20.40;99.90;;;;;;5090950;28;20507;-73
2023/09/30 11:06:46;;;;;;;8.82;4.38;;;20.40;99.90;;;;;;5086025;27;20053;-72
2023/09/30 11:09:19;;;;;;;5.35;4.85;;;20.40;99.90;;;;;;5092800;28;20139;-71
2023/09/30 11:11:51;;;;;;;5.35;4.28;;;20.50;99.90;;;;;;5080930;28;20397;-70
2023/09/30 11:14:30;;;;;;;7.33;4.30;;;20.50;99.90;;;;;;5087427;28;20034;-74
2023/09/30 11:17:01;;;;;;;5.20;4.22;;;20.50;99.90;;;;;;5088978;27;20142;-72
2023/09/30 11:19:45;;;;;;;5.15;4.43;;;20.50;99.90;;;;;;5092012;28;20066;-73
2023/09/30 11:22:12;;;;;;;4.47;4.03;;;20.50;99.90;;;;;;5073219;28;20071;-71
2023/09/30 11:24:38;;;;;;;7.05;4.40;;;20.60;99.90;;;;;;5078830;28;20035;-72
2023/09/30 11:27:04;;;;;;;5.80;4.47;;;20.60;99.90;;;;;;5069508;28;20071;-71
2023/09/30 11:29:30;;;;;;;6.65;4.38;;;20.70;99.90;;;;;;5088036;28;20031;-72
2023/09/30 11:31:55;;;;;;;10.25;4.40;;;20.60;99.90;;;;;;5086185;28;20044;-72
2023/09/30 11:34:34;;;;;;;12.45;4.82;;;20.60;99.90;;;;;;5086873;28;20031;-70
2023/09/30 11:37:01;;;;;;;6.35;4.40;;;20.60;99.90;;;;;;5070005;28;20036;-68
2023/09/30 11:39:29;;;;;;;5.72;4.30;;;20.60;99.90;;;;;;5090835;27;20046;-70
2023/09/30 11:41:56;;;;;;;6.70;6.10;;;20.60;99.90;;;;;;5062142;28;20504;-70
2023/09/30 11:44:23;;;;;;;5.28;4.70;;;20.50;99.90;;;;;;5086527;28;20074;-70
2023/09/30 11:46:52;;;;;;;5.82;4.47;;;20.50;99.90;;;;;;5087182;28;20090;-71
2023/09/30 11:49:38;;;;;;;5.80;4.28;;;20.50;99.90;;;;;;5085765;28;20807;-72
2023/09/30 11:52:07;;;;;;;4.40;3.92;;;20.50;99.90;;;;;;5069278;28;20040;-72
2023/09/30 11:54:39;;;;;;;4.97;3.85;;;20.50;99.90;;;;;;5087658;27;20036;-71
2023/09/30 11:57:05;;;;;;;6.85;4.15;;;20.60;99.90;;;;;;5073985;28;20043;-72
2023/09/30 11:59:31;;;;;;;5.78;4.30;;;20.60;99.90;;;;;;5091879;28;20389;-71
2023/09/30 12:01:58;;;;;;;8.32;4.30;;;20.60;99.90;;;;;;5077116;28;20051;-71
2023/09/30 12:04:24;;;;;;;4.60;4.18;;;20.70;99.90;;;;;;5083634;28;20028;-71
2023/09/30 12:06:50;;;;;;;6.75;4.03;;;20.80;99.90;;;;;;5069842;28;20043;-71
2023/09/30 12:09:22;;;;;;;6.03;4.05;;;20.90;99.90;;;;;;5077877;28;20038;-70
2023/09/30 12:11:51;;;;;;;;;;;21.00;99.90;;;;;;5083628;28;20052;-70
2023/09/30 12:14:16;;;;;;;7.25;4.10;;;21.00;99.90;;;;;;5072496;28;19916;-69
2023/09/30 12:16:45;;;;;;;5.07;4.22;;;21.10;99.90;;;;;;5076832;28;20034;-69
2023/09/30 12:19:13;;;;;;;4.60;4.15;;;21.10;99.90;;;;;;5080976;28;20143;-70
2023/09/30 12:21:40;;;;;;;9.05;4.50;;;21.10;99.90;;;;;;5079718;28;20173;-70
2023/09/30 12:24:07;;;;;;;9.30;3.75;;;21.20;99.90;;;;;;5088142;28;20042;-71
2023/09/30 12:26:33;;;;;;;4.68;3.95;;;21.20;99.90;;;;;;5088121;28;20132;-71
2023/09/30 12:28:59;;;;;;;5.75;4.10;;;21.20;99.90;;;;;;5087582;28;20024;-71
2023/09/30 12:31:25;;;;;;;5.32;4.18;;;21.20;99.90;;;;;;5083831;28;20044;-72
2023/09/30 12:33:51;;;;;;;5.03;3.88;;;21.30;99.90;;;;;;5088658;28;20032;-72
2023/09/30 12:36:18;;;;;;;4.15;3.72;;;21.40;99.90;;;;;;5071080;28;20055;-69
2023/09/30 12:38:44;;;;;;;6.43;4.43;;;21.50;99.90;;;;;;5087251;28;20576;-70
2023/09/30 12:41:10;;;;;;;4.25;3.80;;;21.50;99.90;;;;;;5087154;28;20189;-73
2023/09/30 12:43:37;;;;;;;5.43;3.60;;;21.50;99.90;;;;;;5091485;28;21183;-71
2023/09/30 12:46:04;;;;;;;6.35;4.13;;;21.40;99.90;;;;;;5087981;28;20112;-72
2023/09/30 12:48:30;;;;;;;6.47;3.95;;;21.50;99.90;;;;;;5087459;28;20043;-71
2023/09/30 12:50:55;;;;;;;4.97;4.13;;;21.50;99.90;;;;;;5090932;28;20040;-71